This is the latest recevied weather packets stored in our database for station/object N9XTN-3. If no packets are shown the sender has not sent any weather packets the latest 10 day(s).
| Time | Temp. | Humidity | Pressure | Rain* | Wind** | Luminosity | Snow |
|---|---|---|---|---|---|---|---|
| 1777519216 | 10.56° C | 72% | 1017.7 hPa | 0 mm | - | - | - |
| 1777518915 | 10.56° C | 71% | 1017.6 hPa | 0 mm | - | - | - |
| 1777518616 | 10.56° C | 70% | 1017.6 hPa | 0 mm | - | - | - |
| 1777516536 | 11.67° C | 65% | 1017.3 hPa | 0 mm | - | - | - |
| 1777516215 | 11.67° C | 64% | 1017.4 hPa | 0 mm | - | - | - |
| 1777515316 | 11.67° C | 61% | 1017.1 hPa | 0 mm | - | - | - |
| 1777514715 | 11.67° C | 59% | 1017.1 hPa | 0 mm | - | - | - |
| 1777513516 | 12.22° C | 59% | 1016.9 hPa | 0 mm | - | - | - |
| 1777509915 | 15.56° C | 45% | 1016.7 hPa | 0 mm | - | - | - |
| 1777509615 | 15.56° C | 50% | 1016.6 hPa | 0 mm | - | - | - |
| 1777507836 | 16.11° C | 45% | 1016.8 hPa | 0 mm | - | - | - |
| 1777507515 | 16.11° C | 44% | 1016.9 hPa | 0 mm | - | - | - |
| 1777507216 | 16.11° C | 43% | 1016.7 hPa | 0 mm | - | - | - |
| 1777506336 | 16.11° C | 42% | 1016.9 hPa | 0 mm | - | - | - |
| 1777505736 | 16.67° C | 41% | 1017 hPa | 0 mm | - | - | - |
| 1777503916 | 16.67° C | 45% | 1017.1 hPa | 0 mm | - | - | - |
| 1777503316 | 16.67° C | 43% | 1017.3 hPa | 0 mm | - | - | - |
| 1777503036 | 16.11° C | 45% | 1017.4 hPa | 0 mm | - | - | - |
| 1777500316 | 17.22° C | 40% | 1017.6 hPa | 0 mm | - | - | - |
| 1777499716 | 16.67° C | 44% | 1017.8 hPa | 0 mm | - | - | - |
| 1777498816 | 15.56° C | 43% | 1018 hPa | 0 mm | - | - | - |
| 1777498516 | 16.11° C | 44% | 1018 hPa | 0 mm | - | - | - |
| 1777495516 | 15.56° C | 45% | 1018.8 hPa | 0 mm | - | - | - |
| 1777494936 | 15.56° C | 46% | 1018.9 hPa | 0 mm | - | - | - |
| 1777493416 | 15.56° C | 42% | 1019.4 hPa | 0 mm | - | - | - |
* Rain latest hour (hover to see other rain measurements)
** Current wind speed in m/s (hover to see current wind gust speed)